»·PEaware :: N210SP KSMO-KSNA

N210SP :: KSMO-KSNA

FLIGHT INFORMATION

Flight Status: Arrived
Operator: Privately registered:
United States
More flights under this callsign
Pilot: Alec D. (17934)
Aircraft: PIPER PA-28R-201 ARROW
(P28R)
More flights by this aircraft type
Origin: KSMO Santa Monica Mun
United States
Destination: KSNA John Wayne-Orange Co
United States
More flights between these airports :: More routes between these airports
Route: SMO SMO125 V64 SLI
File this flight plan on PilotEdge
Remarks:
Altitude:
(Current/Filed)
4,000ft
Speed:
(Current/Filed)
130kts
Departed: 12-Nov-19 09:00 AM
Arrived: 12-Nov-19 09:34 AM
Distance/Time
Traveled:
36nm/0:34
Distance/Time
To Go:
Arrived

Flight Plot

Page will automatically refresh every two minutes.


Map Options




Map Legend


Flown Route
Filed Route
Departure Airport
Arrival Airport
Navaid (VOR, NDB)
Fix

Horizontal Profiles

Position Reports

Time Latitude Longitude Heading Altitude Ground
Speed
12-Nov-19 08:36 34.016271 -118.452773 315 177ft 0kts
12-Nov-19 08:37 34.016271 -118.452773 315 177ft 0kts
12-Nov-19 08:38 34.016271 -118.452773 315 177ft 0kts
12-Nov-19 08:39 34.016272 -118.452774 315 177ft 0kts
12-Nov-19 08:40 34.016274 -118.452776 315 177ft 0kts
12-Nov-19 08:41 34.016276 -118.452778 315 177ft 0kts
12-Nov-19 08:42 34.016278 -118.452781 315 177ft 0kts
12-Nov-19 08:43 34.016279 -118.452783 315 177ft 0kts
12-Nov-19 08:44 34.016281 -118.452785 315 177ft 0kts
12-Nov-19 08:45 34.016283 -118.452787 315 177ft 0kts
12-Nov-19 08:46 34.016285 -118.452789 314 177ft 0kts
12-Nov-19 08:47 34.016286 -118.452791 314 177ft 0kts
12-Nov-19 08:48 34.016288 -118.452794 314 177ft 0kts
12-Nov-19 08:49 34.016290 -118.452796 314 177ft 0kts
12-Nov-19 08:50 34.016386 -118.452738 91 177ft 5kts
12-Nov-19 08:51 34.018942 -118.448771 43 177ft 22kts
12-Nov-19 08:52 34.020200 -118.447240 71 177ft 0kts
12-Nov-19 08:53 34.020206 -118.447219 71 177ft 0kts
12-Nov-19 08:54 34.020207 -118.447213 71 177ft 0kts
12-Nov-19 08:55 34.020209 -118.447208 71 177ft 0kts
12-Nov-19 08:56 34.020210 -118.447203 71 177ft 0kts
12-Nov-19 08:57 34.020212 -118.447197 71 177ft 0kts
12-Nov-19 08:58 34.020184 -118.446929 119 177ft 14kts
12-Nov-19 08:59 34.008130 -118.460653 224 495ft 101kts
12-Nov-19 09:00 33.987933 -118.485756 238 1191ft 108kts
12-Nov-19 09:01 33.981300 -118.520838 258 1976ft 108kts
12-Nov-19 09:02 33.981445 -118.556088 317 2643ft 109kts
12-Nov-19 09:03 33.999077 -118.539866 82 3399ft 100kts
12-Nov-19 09:04 34.003174 -118.505375 81 3998ft 111kts
12-Nov-19 09:05 34.008558 -118.464485 81 3963ft 126kts
12-Nov-19 09:06 33.994675 -118.428668 142 3990ft 129kts
12-Nov-19 09:07 33.963743 -118.403076 145 4096ft 143kts
12-Nov-19 09:08 33.930767 -118.374494 137 3996ft 147kts
12-Nov-19 09:09 33.900647 -118.342214 136 3945ft 144kts
12-Nov-19 09:10 33.871985 -118.310578 134 3946ft 138kts
12-Nov-19 09:11 33.844530 -118.278854 136 3934ft 135kts
12-Nov-19 09:12 33.816740 -118.249361 136 3947ft 131kts
12-Nov-19 09:13 33.789095 -118.220813 137 3962ft 130kts
12-Nov-19 09:14 33.773228 -118.187007 60 3968ft 126kts
12-Nov-19 09:15 33.786915 -118.148137 78 4009ft 128kts
12-Nov-19 09:16 33.784916 -118.105532 96 4043ft 129kts
12-Nov-19 09:17 33.782674 -118.062150 85 4002ft 130kts
12-Nov-19 09:18 33.792042 -118.020908 57 3991ft 129kts
12-Nov-19 09:19 33.810825 -117.984227 63 4007ft 129kts
12-Nov-19 09:20 33.828082 -117.946210 56 4020ft 129kts
12-Nov-19 09:21 33.847981 -117.910035 60 4016ft 129kts
12-Nov-19 09:22 33.866559 -117.872932 63 4006ft 130kts
12-Nov-19 09:23 33.885725 -117.836130 58 4019ft 129kts
12-Nov-19 09:24 33.899961 -117.796330 101 4064ft 142kts
12-Nov-19 09:25 33.869424 -117.777056 182 3963ft 135kts
12-Nov-19 09:26 33.833274 -117.779643 182 4004ft 131kts
12-Nov-19 09:27 33.800695 -117.795640 209 3714ft 119kts
12-Nov-19 09:28 33.773869 -117.810711 202 2471ft 86kts
12-Nov-19 09:29 33.751688 -117.822725 198 1528ft 88kts
12-Nov-19 09:30 33.729231 -117.835581 212 1068ft 88kts
12-Nov-19 09:31 33.706576 -117.848101 212 542ft 91kts
12-Nov-19 09:32 33.685679 -117.862530 207 177ft 76kts
12-Nov-19 09:33 33.674758 -117.868739 152 58ft 0kts
12-Nov-19 09:34 33.673199 -117.866721 212 58ft 15kts

Navigation Log

Ident Type
Flight plan parsing failed, navigation log unavailable